createdAt,value
2018-10-16T00:01:03.786Z,8.50
2018-10-16T00:03:32.083Z,8.50
2018-10-16T00:06:00.392Z,8.70
2018-10-16T00:08:28.602Z,8.80
2018-10-16T00:14:28.703Z,9.30
2018-10-16T00:16:56.954Z,9.50
2018-10-16T00:19:26.243Z,9.60
2018-10-16T00:21:54.766Z,9.70
2018-10-16T00:24:23.750Z,9.70
2018-10-16T00:26:52.030Z,9.60
2018-10-16T00:29:21.518Z,9.50
2018-10-16T00:31:49.715Z,9.50
2018-10-16T00:34:18.310Z,9.40
2018-10-16T00:36:46.718Z,9.40
2018-10-16T00:39:16.123Z,9.50
2018-10-16T00:41:48.542Z,9.50
2018-10-16T00:44:16.751Z,9.50
2018-10-16T00:46:44.938Z,9.50
2018-10-16T00:49:13.163Z,9.50
2018-10-16T00:51:41.342Z,9.40
2018-10-16T00:54:09.679Z,9.30
2018-10-16T00:56:38.144Z,9.10
2018-10-16T00:59:06.627Z,9.00
2018-10-16T01:01:35.051Z,8.90
2018-10-16T01:04:04.337Z,9.00
2018-10-16T01:06:33.517Z,9.00
2018-10-16T01:09:01.958Z,9.00
2018-10-16T01:11:30.134Z,9.00
2018-10-16T01:13:58.738Z,8.90
2018-10-16T01:16:26.902Z,8.80
2018-10-16T01:18:55.107Z,8.60
2018-10-16T01:21:23.286Z,8.50
2018-10-16T01:23:51.486Z,8.40
2018-10-16T01:26:19.636Z,8.30
2018-10-16T01:28:47.821Z,8.10
2018-10-16T01:31:16.321Z,8.00
2018-10-16T01:33:44.514Z,7.90
2018-10-16T01:36:12.730Z,7.70
2018-10-16T01:38:40.926Z,7.60
2018-10-16T01:41:10.254Z,7.60
2018-10-16T01:43:39.108Z,7.50
2018-10-16T01:46:07.769Z,7.40
2018-10-16T01:48:36.308Z,7.40
2018-10-16T01:51:04.525Z,7.40
2018-10-16T01:53:33.226Z,7.40
2018-10-16T01:56:01.447Z,7.30
2018-10-16T01:58:29.759Z,7.20
2018-10-16T02:00:58.087Z,7.20
2018-10-16T02:03:26.326Z,7.20
2018-10-16T02:05:54.546Z,7.10
2018-10-16T02:08:22.724Z,7.00
2018-10-16T02:10:50.994Z,7.10
2018-10-16T02:13:19.202Z,7.10
2018-10-16T02:15:47.430Z,7.10
2018-10-16T02:18:15.614Z,7.20
2018-10-16T02:20:43.876Z,7.20
2018-10-16T02:23:12.040Z,7.30
2018-10-16T02:25:40.240Z,7.30
2018-10-16T02:28:08.417Z,7.40
2018-10-16T02:30:36.647Z,7.40
2018-10-16T02:33:05.065Z,7.40
2018-10-16T02:35:33.624Z,7.30
2018-10-16T02:38:01.816Z,7.20
2018-10-16T02:40:30.010Z,7.10
2018-10-16T02:42:58.218Z,7.10
2018-10-16T02:45:26.394Z,7.10
2018-10-16T02:47:54.554Z,7.30
2018-10-16T02:50:22.741Z,7.50
2018-10-16T02:52:50.963Z,7.60
2018-10-16T02:55:19.174Z,7.50
2018-10-16T02:57:47.375Z,7.50
2018-10-16T03:00:16.407Z,7.50
2018-10-16T03:02:44.774Z,7.80
2018-10-16T03:05:13.650Z,8.10
2018-10-16T03:07:41.818Z,8.20
2018-10-16T03:10:10.024Z,8.40
2018-10-16T03:12:38.561Z,8.60
2018-10-16T03:15:10.001Z,8.60
2018-10-16T03:17:38.622Z,8.50
2018-10-16T03:20:07.365Z,8.40
2018-10-16T03:22:35.538Z,8.40
2018-10-16T03:25:04.077Z,8.50
2018-10-16T03:27:32.253Z,8.70
2018-10-16T03:30:00.643Z,8.70
2018-10-16T03:32:28.842Z,8.70
2018-10-16T03:34:58.745Z,8.60
2018-10-16T03:37:26.938Z,8.60
2018-10-16T03:39:55.181Z,8.50
2018-10-16T03:42:23.365Z,8.50
2018-10-16T03:44:51.595Z,8.30
2018-10-16T03:47:19.783Z,8.20
2018-10-16T03:49:47.998Z,8.20
2018-10-16T03:52:16.811Z,8.20
2018-10-16T03:54:45.118Z,8.20
2018-10-16T03:57:13.315Z,8.20
2018-10-16T03:59:41.467Z,8.20
2018-10-16T04:02:09.626Z,8.20
2018-10-16T04:04:37.775Z,8.20
2018-10-16T04:07:06.385Z,8.10
2018-10-16T04:09:34.612Z,7.90
2018-10-16T04:12:02.839Z,7.80
2018-10-16T04:14:31.066Z,7.60
2018-10-16T04:16:59.314Z,7.40
2018-10-16T04:19:30.085Z,7.20
2018-10-16T04:21:58.237Z,7.20
2018-10-16T04:24:26.706Z,7.20
2018-10-16T04:26:54.892Z,7.30
2018-10-16T04:29:23.121Z,7.30
2018-10-16T04:31:51.314Z,7.30
2018-10-16T04:34:19.527Z,7.30
2018-10-16T04:36:47.759Z,7.30
2018-10-16T04:39:16.027Z,7.40
2018-10-16T04:41:44.262Z,7.60
2018-10-16T04:44:12.426Z,7.80
2018-10-16T04:46:40.638Z,8.00
2018-10-16T04:49:08.794Z,8.20
2018-10-16T04:51:36.983Z,8.20
2018-10-16T04:54:05.207Z,8.10
2018-10-16T04:56:33.510Z,8.00
2018-10-16T04:59:01.795Z,8.00
2018-10-16T05:01:29.983Z,7.90
2018-10-16T05:03:58.203Z,7.80
2018-10-16T05:06:26.375Z,7.80
2018-10-16T05:08:54.618Z,7.70
2018-10-16T05:11:22.837Z,7.70
2018-10-16T05:13:51.018Z,7.70
2018-10-16T05:16:19.905Z,7.70
2018-10-16T05:18:48.676Z,7.70
2018-10-16T05:21:17.233Z,7.70
2018-10-16T05:23:45.410Z,7.70
2018-10-16T05:26:13.591Z,7.70
2018-10-16T05:28:41.780Z,7.60
2018-10-16T05:31:10.024Z,7.50
2018-10-16T05:33:38.643Z,7.50
2018-10-16T05:36:07.126Z,7.40
2018-10-16T05:38:35.338Z,7.40
2018-10-16T05:41:04.072Z,7.30
2018-10-16T05:43:32.696Z,7.30
2018-10-16T05:46:00.894Z,7.30
2018-10-16T05:48:29.070Z,7.30
2018-10-16T05:50:58.278Z,7.30
2018-10-16T05:53:26.473Z,7.30
2018-10-16T05:56:00.097Z,7.30
2018-10-16T05:58:28.444Z,7.40
2018-10-16T06:00:56.621Z,7.40
2018-10-16T06:03:24.900Z,7.40
2018-10-16T06:05:53.094Z,7.40
2018-10-16T06:08:21.286Z,7.30
2018-10-16T06:10:49.531Z,7.20
2018-10-16T06:13:17.634Z,7.20
2018-10-16T06:15:45.869Z,7.10
2018-10-16T06:18:14.061Z,7.20
2018-10-16T06:20:42.446Z,7.30
2018-10-16T06:23:10.734Z,7.30
2018-10-16T06:25:38.944Z,7.40
2018-10-16T06:28:16.284Z,7.50
2018-10-16T06:30:44.514Z,7.50
2018-10-16T06:33:13.052Z,7.60
2018-10-16T06:35:41.190Z,7.60
2018-10-16T06:38:10.040Z,7.80
2018-10-16T06:40:38.397Z,8.10
2018-10-16T06:43:06.667Z,8.60
2018-10-16T06:45:34.871Z,9.30
2018-10-16T06:48:03.141Z,10.00
2018-10-16T06:50:31.668Z,10.60
2018-10-16T06:52:59.900Z,11.10
2018-10-16T06:55:28.477Z,11.50
2018-10-16T06:57:56.718Z,11.80
2018-10-16T07:00:24.907Z,12.30
2018-10-16T07:02:53.117Z,12.70
2018-10-16T07:05:21.447Z,13.10
2018-10-16T07:07:49.669Z,13.40
2018-10-16T07:10:18.550Z,13.80
2018-10-16T07:12:47.254Z,14.10
2018-10-16T07:15:15.434Z,14.20
2018-10-16T07:17:43.651Z,14.40
2018-10-16T07:20:11.900Z,14.70
2018-10-16T07:22:40.103Z,14.90
2018-10-16T07:25:09.638Z,14.80
2018-10-16T07:27:37.822Z,15.00
2018-10-16T07:30:08.639Z,15.10
2018-10-16T07:32:36.817Z,15.20
2018-10-16T07:35:06.383Z,15.20
2018-10-16T07:37:34.623Z,15.20
2018-10-16T07:40:03.022Z,15.20
2018-10-16T07:42:31.228Z,15.20
2018-10-16T07:44:59.440Z,15.30
2018-10-16T07:47:27.749Z,15.20
2018-10-16T07:49:55.918Z,15.30
2018-10-16T07:52:24.580Z,15.20
2018-10-16T07:54:52.725Z,15.30
2018-10-16T07:57:21.035Z,15.30
2018-10-16T07:59:49.243Z,15.60
2018-10-16T08:02:17.374Z,15.70
2018-10-16T08:04:45.780Z,15.90
2018-10-16T08:07:14.164Z,16.30
2018-10-16T08:09:42.309Z,16.60
2018-10-16T08:12:10.723Z,16.80
2018-10-16T08:14:39.527Z,17.00
2018-10-16T08:17:07.760Z,17.10
2018-10-16T08:19:36.757Z,17.30
2018-10-16T08:22:05.019Z,17.50
2018-10-16T08:24:33.186Z,17.60
2018-10-16T08:27:01.592Z,17.90
2018-10-16T08:29:29.854Z,18.30
2018-10-16T08:31:58.053Z,18.70
2018-10-16T08:34:26.278Z,18.80
2018-10-16T08:36:54.628Z,18.80
2018-10-16T08:39:26.295Z,19.20
2018-10-16T08:44:10.062Z,19.40
2018-10-16T08:46:49.714Z,19.90
2018-10-16T08:49:29.368Z,20.00
2018-10-16T08:51:58.373Z,19.50
2018-10-16T08:54:26.607Z,19.40
2018-10-16T08:56:54.778Z,19.20
2018-10-16T08:59:22.989Z,19.70
2018-10-16T09:01:51.193Z,20.00
2018-10-16T09:04:19.378Z,20.40
2018-10-16T09:06:47.654Z,20.80
2018-10-16T09:09:17.106Z,21.30
2018-10-16T09:11:46.650Z,21.70
2018-10-16T09:14:15.421Z,21.80
2018-10-16T09:16:44.638Z,21.80
2018-10-16T09:19:12.850Z,21.90
2018-10-16T09:21:41.074Z,22.10
2018-10-16T09:24:09.283Z,22.20
2018-10-16T09:26:37.514Z,22.80
2018-10-16T09:29:05.880Z,23.00
2018-10-16T09:31:34.042Z,23.00
2018-10-16T09:34:04.345Z,23.10
2018-10-16T09:36:32.577Z,23.60
2018-10-16T09:39:00.878Z,24.00
2018-10-16T09:41:29.034Z,24.10
2018-10-16T09:43:57.241Z,24.30
2018-10-16T09:46:25.830Z,24.50
2018-10-16T09:48:54.037Z,24.40
2018-10-16T09:51:22.650Z,24.30
2018-10-16T09:53:50.842Z,24.30
2018-10-16T09:56:19.022Z,24.50
2018-10-16T09:58:47.275Z,24.60
2018-10-16T10:01:21.156Z,24.80
2018-10-16T10:03:49.390Z,25.30
2018-10-16T10:06:18.109Z,25.70
2018-10-16T10:08:46.395Z,25.90
2018-10-16T10:11:14.599Z,26.10
2018-10-16T10:13:42.806Z,26.40
2018-10-16T10:16:10.986Z,26.30
2018-10-16T10:18:39.185Z,26.30
2018-10-16T10:21:07.389Z,26.40
2018-10-16T10:23:35.564Z,26.50
2018-10-16T10:26:03.778Z,27.10
2018-10-16T10:28:32.009Z,27.10
2018-10-16T10:31:00.311Z,26.90
2018-10-16T10:33:28.556Z,26.70
2018-10-16T10:35:56.739Z,27.00
2018-10-16T10:38:25.210Z,27.00
2018-10-16T10:40:53.730Z,26.90
2018-10-16T10:43:21.914Z,26.90
2018-10-16T10:45:50.130Z,27.00
2018-10-16T10:48:18.333Z,26.90
2018-10-16T10:50:47.112Z,27.20
2018-10-16T10:53:15.087Z,27.50
2018-10-16T10:55:43.303Z,28.00
2018-10-16T10:58:11.512Z,28.60
2018-10-16T11:00:39.702Z,29.20
2018-10-16T11:03:08.000Z,29.40
2018-10-16T11:05:36.114Z,30.20
2018-10-16T11:08:04.310Z,30.90
2018-10-16T11:10:32.487Z,31.10
2018-10-16T11:13:00.850Z,30.20
2018-10-16T11:15:29.038Z,30.30
2018-10-16T11:17:57.262Z,30.40
2018-10-16T11:20:26.049Z,31.10
2018-10-16T11:22:54.238Z,30.90
2018-10-16T11:25:22.434Z,30.50
2018-10-16T11:27:50.622Z,30.30
2018-10-16T11:30:18.923Z,30.20
2018-10-16T11:32:47.050Z,30.40
2018-10-16T11:35:15.482Z,30.60
2018-10-16T11:37:43.700Z,30.30
2018-10-16T11:40:12.335Z,30.50
2018-10-16T11:42:41.116Z,30.90
2018-10-16T11:45:09.344Z,31.40
2018-10-16T11:47:38.503Z,32.20
2018-10-16T11:50:07.707Z,32.50
2018-10-16T11:52:35.907Z,33.30
2018-10-16T11:55:04.540Z,34.00
2018-10-16T11:57:32.893Z,33.80
2018-10-16T12:00:01.194Z,33.10
2018-10-16T12:02:29.522Z,32.80
2018-10-16T12:04:57.930Z,32.40
2018-10-16T12:07:26.442Z,32.60
2018-10-16T12:09:54.644Z,32.40
2018-10-16T12:12:24.027Z,32.70
2018-10-16T12:14:52.422Z,33.00
2018-10-16T12:17:26.083Z,33.10
2018-10-16T12:19:58.826Z,32.80
2018-10-16T12:22:26.966Z,32.70
2018-10-16T12:24:55.259Z,32.80
2018-10-16T12:27:23.346Z,32.60
2018-10-16T12:29:51.586Z,32.00
2018-10-16T12:32:19.851Z,31.70
2018-10-16T12:34:47.989Z,31.90
2018-10-16T12:37:16.297Z,31.60
2018-10-16T12:39:44.715Z,31.30
2018-10-16T12:42:12.875Z,30.70
2018-10-16T12:44:41.257Z,30.00
2018-10-16T12:47:09.521Z,29.70
2018-10-16T12:49:37.638Z,29.40
2018-10-16T12:52:06.007Z,29.20
2018-10-16T12:54:34.214Z,29.10
2018-10-16T12:57:02.727Z,29.60
2018-10-16T12:59:31.253Z,29.60
2018-10-16T13:01:59.559Z,29.60
2018-10-16T13:04:28.474Z,29.90
2018-10-16T13:06:59.806Z,30.00
2018-10-16T13:09:28.167Z,30.00
2018-10-16T13:11:56.326Z,30.10
2018-10-16T13:14:24.566Z,30.00
2018-10-16T13:16:52.787Z,29.80
2018-10-16T13:19:21.134Z,29.50
2018-10-16T13:21:49.338Z,29.40
2018-10-16T13:24:17.528Z,29.30
2018-10-16T13:26:45.947Z,29.50
2018-10-16T13:29:14.318Z,29.90
2018-10-16T13:31:42.414Z,30.30
2018-10-16T13:34:10.671Z,30.30
2018-10-16T13:36:38.784Z,30.00
2018-10-16T13:39:07.926Z,29.80
2018-10-16T13:41:36.166Z,29.50
2018-10-16T13:44:04.443Z,29.10
2018-10-16T13:46:32.591Z,29.00
2018-10-16T13:49:00.834Z,29.30
2018-10-16T13:51:29.070Z,29.70
2018-10-16T13:53:57.930Z,30.40
2018-10-16T13:56:26.146Z,31.20
2018-10-16T13:58:54.503Z,31.10
2018-10-16T14:01:22.683Z,31.40
2018-10-16T14:03:50.895Z,31.10
2018-10-16T14:06:19.078Z,31.40
2018-10-16T14:08:47.266Z,31.30
2018-10-16T14:11:15.646Z,31.50
2018-10-16T14:13:43.987Z,31.20
2018-10-16T14:16:12.551Z,30.40
2018-10-16T14:18:40.715Z,29.70
2018-10-16T14:21:08.934Z,30.20
2018-10-16T14:23:38.460Z,31.10
2018-10-16T14:26:06.774Z,31.80
2018-10-16T14:28:34.921Z,31.50
2018-10-16T14:31:03.254Z,31.20
2018-10-16T14:33:31.699Z,31.20
2018-10-16T14:35:59.984Z,31.50
2018-10-16T14:38:28.190Z,31.90
2018-10-16T14:40:56.387Z,31.80
2018-10-16T14:43:25.350Z,31.90
2018-10-16T14:45:53.602Z,31.60
2018-10-16T14:48:21.768Z,30.90
2018-10-16T14:50:50.282Z,30.90
2018-10-16T14:53:18.451Z,31.00
2018-10-16T14:55:46.651Z,30.80
2018-10-16T14:58:14.936Z,31.00
2018-10-16T15:00:43.102Z,31.30
2018-10-16T15:03:11.629Z,31.40
2018-10-16T15:05:40.429Z,31.70
2018-10-16T15:08:08.678Z,31.80
2018-10-16T15:10:36.951Z,31.30
2018-10-16T15:13:05.326Z,30.60
2018-10-16T15:15:33.526Z,29.10
2018-10-16T15:18:01.746Z,27.50
2018-10-16T15:20:29.920Z,26.40
2018-10-16T15:22:58.458Z,25.70
2018-10-16T15:25:26.641Z,24.90
2018-10-16T15:27:55.779Z,24.50
2018-10-16T15:30:26.663Z,24.10
2018-10-16T15:32:54.847Z,23.80
2018-10-16T15:35:23.056Z,23.50
2018-10-16T15:37:52.895Z,23.30
2018-10-16T15:40:21.045Z,23.10
2018-10-16T15:42:49.271Z,23.00
2018-10-16T15:45:17.478Z,22.80
2018-10-16T15:47:45.698Z,22.70
2018-10-16T15:50:14.002Z,22.60
2018-10-16T15:52:42.058Z,22.40
2018-10-16T15:55:11.037Z,22.30
2018-10-16T15:57:39.396Z,22.20
2018-10-16T16:00:10.032Z,22.00
2018-10-16T16:02:38.247Z,21.90
2018-10-16T16:05:06.569Z,21.70
2018-10-16T16:07:34.993Z,21.60
2018-10-16T16:10:03.783Z,21.30
2018-10-16T16:12:32.421Z,21.10
2018-10-16T16:15:00.544Z,20.80
2018-10-16T16:17:28.701Z,20.50
2018-10-16T16:19:56.893Z,20.20
2018-10-16T16:22:25.018Z,19.90
2018-10-16T16:24:53.937Z,19.70
2018-10-16T16:27:22.558Z,19.50
2018-10-16T16:29:50.744Z,19.20
2018-10-16T16:32:19.006Z,19.00
2018-10-16T16:34:47.169Z,18.80
2018-10-16T16:37:15.439Z,18.60
2018-10-16T16:39:43.615Z,18.40
2018-10-16T16:42:11.877Z,18.20
2018-10-16T16:44:40.370Z,18.00
2018-10-16T16:47:08.601Z,17.80
2018-10-16T16:49:36.977Z,17.70
2018-10-16T16:52:05.952Z,17.80
2018-10-16T16:54:34.102Z,18.00
2018-10-16T16:57:03.084Z,18.00
2018-10-16T16:59:31.278Z,18.00
2018-10-16T17:01:59.573Z,18.00
2018-10-16T17:04:27.726Z,17.90
2018-10-16T17:06:58.491Z,17.80
2018-10-16T17:09:26.663Z,17.70
2018-10-16T17:11:54.922Z,17.60
2018-10-16T17:14:23.747Z,17.50
2018-10-16T17:16:51.950Z,17.50
2018-10-16T17:19:20.367Z,17.40
2018-10-16T17:21:48.894Z,17.40
2018-10-16T17:24:17.127Z,17.30
2018-10-16T17:26:45.738Z,17.20
2018-10-16T17:29:13.920Z,17.10
2018-10-16T17:31:42.238Z,17.00
2018-10-16T17:34:10.507Z,16.80
2018-10-16T17:36:38.611Z,16.70
2018-10-16T17:39:08.299Z,16.70
2018-10-16T17:41:38.438Z,16.70
2018-10-16T17:44:07.098Z,16.70
2018-10-16T17:46:35.440Z,16.70
2018-10-16T17:49:03.911Z,16.60
2018-10-16T17:51:32.362Z,16.50
2018-10-16T17:54:00.548Z,16.40
2018-10-16T17:56:28.717Z,16.30
2018-10-16T17:58:56.962Z,16.10
2018-10-16T18:01:25.166Z,16.00
2018-10-16T18:03:53.406Z,15.90
2018-10-16T18:06:22.361Z,15.90
2018-10-16T18:08:50.611Z,15.80
2018-10-16T18:11:18.825Z,15.70
2018-10-16T18:13:46.994Z,15.70
2018-10-16T18:16:15.154Z,15.60
2018-10-16T18:18:43.395Z,15.50
2018-10-16T18:21:11.621Z,15.40
2018-10-16T18:23:39.785Z,15.50
2018-10-16T18:26:07.923Z,15.60
2018-10-16T18:28:36.495Z,15.60
2018-10-16T18:31:05.307Z,15.60
2018-10-16T18:33:33.534Z,15.70
2018-10-16T18:36:01.818Z,15.80
2018-10-16T18:38:30.110Z,15.90
2018-10-16T18:40:58.262Z,15.90
2018-10-16T18:43:26.950Z,16.00
2018-10-16T18:45:55.139Z,16.00
2018-10-16T18:48:23.321Z,15.90
2018-10-16T18:50:51.535Z,15.80
2018-10-16T18:53:19.714Z,15.70
2018-10-16T18:55:47.909Z,15.60
2018-10-16T18:58:17.651Z,15.60
2018-10-16T19:00:46.031Z,15.50
2018-10-16T19:03:14.302Z,15.60
2018-10-16T19:05:42.418Z,15.60
2018-10-16T19:08:10.659Z,15.60
2018-10-16T19:10:38.854Z,15.60
2018-10-16T19:13:07.008Z,15.50
2018-10-16T19:15:35.193Z,15.40
2018-10-16T19:18:03.433Z,15.40
2018-10-16T19:20:31.609Z,15.30
2018-10-16T19:22:59.770Z,15.30
2018-10-16T19:25:27.967Z,15.20
2018-10-16T19:27:56.191Z,15.00
2018-10-16T19:30:24.398Z,15.00
2018-10-16T19:32:52.639Z,14.90
2018-10-16T19:35:20.774Z,14.80
2018-10-16T19:37:49.059Z,14.70
2018-10-16T19:40:17.224Z,14.60
2018-10-16T19:42:45.408Z,14.50
2018-10-16T19:45:13.692Z,14.40
2018-10-16T19:47:41.832Z,14.20
2018-10-16T19:50:10.755Z,14.10
2018-10-16T19:52:38.935Z,14.00
2018-10-16T19:55:07.562Z,14.00
2018-10-16T19:57:36.570Z,13.90
2018-10-16T20:00:06.405Z,13.90
2018-10-16T20:02:35.876Z,13.90
2018-10-16T20:05:05.500Z,13.80
2018-10-16T20:07:34.480Z,13.80
2018-10-16T20:10:03.040Z,13.90
2018-10-16T20:12:31.220Z,13.90
2018-10-16T20:14:59.411Z,13.90
2018-10-16T20:17:28.088Z,13.90
2018-10-16T20:19:56.859Z,13.80
2018-10-16T20:22:27.066Z,13.80
2018-10-16T20:24:57.206Z,13.90
2018-10-16T20:27:25.568Z,13.90
2018-10-16T20:29:53.729Z,13.90
2018-10-16T20:32:21.950Z,13.90
2018-10-16T20:34:50.124Z,13.90
2018-10-16T20:37:19.414Z,13.90
2018-10-16T20:39:47.622Z,14.00
2018-10-16T20:42:15.827Z,14.10
2018-10-16T20:44:43.969Z,14.20
2018-10-16T20:47:12.178Z,14.30
2018-10-16T20:49:40.430Z,14.40
2018-10-16T20:52:08.567Z,14.50
2018-10-16T20:54:36.725Z,14.60
2018-10-16T20:57:05.030Z,14.60
2018-10-16T20:59:33.299Z,14.70
2018-10-16T21:02:01.627Z,14.70
2018-10-16T21:04:29.984Z,14.70
2018-10-16T21:06:58.498Z,14.70
2018-10-16T21:09:26.373Z,14.70
2018-10-16T21:11:54.912Z,14.80
2018-10-16T21:14:23.029Z,14.90
2018-10-16T21:16:51.205Z,14.90
2018-10-16T21:19:20.758Z,15.00
2018-10-16T21:21:48.934Z,15.00
2018-10-16T21:24:17.078Z,15.10
2018-10-16T21:26:50.353Z,15.10
2018-10-16T21:29:18.609Z,15.20
2018-10-16T21:31:46.809Z,15.30
2018-10-16T21:34:14.994Z,15.30
2018-10-16T21:36:43.720Z,15.30
2018-10-16T21:39:11.896Z,15.30
2018-10-16T21:41:40.030Z,15.30
2018-10-16T21:44:08.157Z,15.20
2018-10-16T21:46:36.364Z,15.10
2018-10-16T21:49:04.773Z,14.90
2018-10-16T21:51:33.813Z,14.80
2018-10-16T21:54:01.957Z,14.60
2018-10-16T21:56:30.352Z,14.50
2018-10-16T21:58:58.572Z,14.30
2018-10-16T22:01:32.065Z,14.10
2018-10-16T22:04:00.325Z,13.90
2018-10-16T22:06:28.497Z,13.70
2018-10-16T22:08:57.051Z,13.60
2018-10-16T22:11:25.293Z,13.50
2018-10-16T22:13:53.482Z,13.40
2018-10-16T22:16:21.681Z,13.30
2018-10-16T22:18:49.901Z,13.10
2018-10-16T22:21:18.066Z,13.00
2018-10-16T22:23:46.267Z,12.80
2018-10-16T22:26:14.462Z,12.70
2018-10-16T22:28:42.857Z,12.50
2018-10-16T22:31:11.087Z,12.40
2018-10-16T22:33:39.150Z,12.30
2018-10-16T22:36:07.428Z,12.30
2018-10-16T22:38:35.674Z,12.20
2018-10-16T22:41:03.856Z,12.10
2018-10-16T22:43:32.341Z,12.10
2018-10-16T22:46:00.518Z,12.00
2018-10-16T22:48:28.723Z,12.00
2018-10-16T22:50:56.877Z,11.90
2018-10-16T22:53:25.082Z,11.80
2018-10-16T22:55:53.285Z,11.80
2018-10-16T22:58:21.505Z,11.70
2018-10-16T23:00:49.969Z,11.60
2018-10-16T23:03:18.194Z,11.50
2018-10-16T23:05:46.517Z,11.40
2018-10-16T23:08:14.869Z,11.30
2018-10-16T23:10:44.585Z,11.20
2018-10-16T23:13:12.784Z,11.00
2018-10-16T23:15:40.937Z,10.90
2018-10-16T23:18:09.157Z,10.80
2018-10-16T23:20:38.085Z,10.80
2018-10-16T23:23:06.599Z,10.80
2018-10-16T23:25:34.729Z,10.80
2018-10-16T23:28:02.906Z,10.70
2018-10-16T23:30:31.333Z,10.70
2018-10-16T23:32:59.577Z,10.60
2018-10-16T23:35:27.765Z,10.60
2018-10-16T23:37:55.922Z,10.60
2018-10-16T23:40:24.124Z,10.50
2018-10-16T23:42:52.342Z,10.50
2018-10-16T23:45:20.460Z,10.50
2018-10-16T23:47:48.702Z,10.40
2018-10-16T23:50:16.922Z,10.30
2018-10-16T23:52:45.589Z,10.30
2018-10-16T23:55:13.773Z,10.20
2018-10-16T23:57:41.917Z,10.10
